createdAt,value
2023-02-15T00:00:19.845Z,4.70
2023-02-15T00:02:47.120Z,4.70
2023-02-15T00:05:14.475Z,4.70
2023-02-15T00:07:41.702Z,4.70
2023-02-15T00:10:13.550Z,4.60
2023-02-15T00:12:40.831Z,4.50
2023-02-15T00:15:10.391Z,4.50
2023-02-15T00:17:37.573Z,4.50
2023-02-15T00:20:05.322Z,4.50
2023-02-15T00:22:34.668Z,4.60
2023-02-15T00:25:02.119Z,4.50
2023-02-15T00:27:29.334Z,4.60
2023-02-15T00:29:59.085Z,4.50
2023-02-15T00:32:26.507Z,4.40
2023-02-15T00:34:53.703Z,4.40
2023-02-15T00:37:23.159Z,4.40
2023-02-15T00:39:50.390Z,4.40
2023-02-15T00:42:17.635Z,4.30
2023-02-15T00:44:45.318Z,4.30
2023-02-15T00:47:12.608Z,4.30
2023-02-15T00:49:44.972Z,4.00
2023-02-15T00:52:17.104Z,4.00
2023-02-15T00:54:44.324Z,4.00
2023-02-15T00:57:11.598Z,3.90
2023-02-15T00:59:41.098Z,3.80
2023-02-15T01:02:08.386Z,3.90
2023-02-15T01:04:37.833Z,3.80
2023-02-15T01:07:05.169Z,3.70
2023-02-15T01:09:32.412Z,3.60
2023-02-15T01:12:01.779Z,3.70
2023-02-15T01:14:29.012Z,3.80
2023-02-15T01:16:58.814Z,3.70
2023-02-15T01:19:28.458Z,3.70
2023-02-15T01:21:58.055Z,3.70
2023-02-15T01:24:27.648Z,3.70
2023-02-15T01:26:57.235Z,3.80
2023-02-15T01:29:27.017Z,3.90
2023-02-15T01:31:54.333Z,3.80
2023-02-15T01:34:21.609Z,3.90
2023-02-15T01:36:49.295Z,3.80
2023-02-15T01:39:16.625Z,3.80
2023-02-15T01:41:43.888Z,3.80
2023-02-15T01:44:50.220Z,3.90
2023-02-15T01:47:39.674Z,3.80
2023-02-15T01:50:15.614Z,3.90
2023-02-15T01:52:52.117Z,3.90
2023-02-15T01:55:20.755Z,3.90
2023-02-15T01:57:48.213Z,3.90
2023-02-15T02:00:18.894Z,3.80
2023-02-15T02:02:52.088Z,3.80
2023-02-15T02:05:19.276Z,3.80
2023-02-15T02:07:51.414Z,4.00
2023-02-15T02:10:25.282Z,3.90
2023-02-15T02:13:06.940Z,3.90
2023-02-15T02:16:05.250Z,3.80
2023-02-15T02:19:04.033Z,3.80
2023-02-15T02:21:59.838Z,3.80
2023-02-15T02:24:47.570Z,3.80
2023-02-15T02:27:23.934Z,3.70
2023-02-15T02:30:23.450Z,3.70
2023-02-15T02:33:14.150Z,3.70
2023-02-15T02:36:03.250Z,3.60
2023-02-15T02:38:43.456Z,3.70
2023-02-15T02:41:22.062Z,3.70
2023-02-15T02:44:15.858Z,3.70
2023-02-15T02:46:54.521Z,3.50
2023-02-15T02:49:42.680Z,3.50
2023-02-15T02:52:37.194Z,3.50
2023-02-15T02:55:11.890Z,3.40
2023-02-15T02:57:47.500Z,3.50
2023-02-15T03:00:16.680Z,3.40
2023-02-15T03:02:50.514Z,3.50
2023-02-15T03:05:24.123Z,3.50
2023-02-15T03:07:54.837Z,3.50
2023-02-15T03:10:24.637Z,3.50
2023-02-15T03:12:53.776Z,3.50
2023-02-15T03:15:25.862Z,3.40
2023-02-15T03:18:03.713Z,3.40
2023-02-15T03:20:36.888Z,3.40
2023-02-15T03:23:11.543Z,3.30
2023-02-15T03:25:44.947Z,3.10
2023-02-15T03:28:21.842Z,3.20
2023-02-15T03:30:57.263Z,3.30
2023-02-15T03:33:29.509Z,3.30
2023-02-15T03:36:05.843Z,3.30
2023-02-15T03:38:45.866Z,3.30
2023-02-15T03:41:15.328Z,3.30
2023-02-15T03:44:00.600Z,3.20
2023-02-15T03:46:39.720Z,3.20
2023-02-15T03:49:26.584Z,3.20
2023-02-15T03:51:57.155Z,3.30
2023-02-15T03:54:47.485Z,3.30
2023-02-15T03:57:43.649Z,3.30
2023-02-15T04:00:34.529Z,3.40
2023-02-15T04:03:16.855Z,3.30
2023-02-15T04:05:47.456Z,3.30
2023-02-15T04:08:17.072Z,3.40
2023-02-15T04:10:53.260Z,3.30
2023-02-15T04:13:30.569Z,3.30
2023-02-15T04:16:08.056Z,3.10
2023-02-15T04:18:58.897Z,3.00
2023-02-15T04:21:46.989Z,3.00
2023-02-15T04:24:33.669Z,3.00
2023-02-15T04:27:01.450Z,3.00
2023-02-15T04:29:29.157Z,3.00
2023-02-15T04:32:00.915Z,3.00
2023-02-15T04:34:28.306Z,3.10
2023-02-15T04:36:55.796Z,3.00
2023-02-15T04:39:23.021Z,3.00
2023-02-15T04:41:50.519Z,3.00
2023-02-15T04:44:17.733Z,3.00
2023-02-15T04:46:47.474Z,3.00
2023-02-15T04:49:14.749Z,3.00
2023-02-15T04:51:41.998Z,3.10
2023-02-15T04:54:11.364Z,3.10
2023-02-15T04:56:39.965Z,3.10
2023-02-15T04:59:07.273Z,3.00
2023-02-15T05:01:39.576Z,3.00
2023-02-15T05:04:06.823Z,2.90
2023-02-15T05:06:34.500Z,2.90
2023-02-15T05:09:01.832Z,2.60
2023-02-15T05:11:29.111Z,2.50
2023-02-15T05:13:56.354Z,2.50
2023-02-15T05:16:30.818Z,2.60
2023-02-15T05:18:58.164Z,2.60
2023-02-15T05:21:26.031Z,2.50
2023-02-15T05:23:53.302Z,2.50
2023-02-15T05:26:42.100Z,2.60
2023-02-15T05:29:10.084Z,2.60
2023-02-15T05:31:37.868Z,2.70
2023-02-15T05:34:05.319Z,2.70
2023-02-15T05:36:32.586Z,2.60
2023-02-15T05:39:02.401Z,2.70
2023-02-15T05:41:29.625Z,2.70
2023-02-15T05:43:59.081Z,2.80
2023-02-15T05:46:26.438Z,2.70
2023-02-15T05:48:53.706Z,2.70
2023-02-15T05:51:20.938Z,2.70
2023-02-15T05:53:50.545Z,3.00
2023-02-15T05:56:20.256Z,3.20
2023-02-15T05:58:47.549Z,3.40
2023-02-15T06:01:18.203Z,3.60
2023-02-15T06:03:47.876Z,3.70
2023-02-15T06:06:15.156Z,3.80
2023-02-15T06:08:42.763Z,3.80
2023-02-15T06:11:12.381Z,3.90
2023-02-15T06:13:41.839Z,3.90
2023-02-15T06:16:13.595Z,3.90
2023-02-15T06:18:40.853Z,3.80
2023-02-15T06:21:13.010Z,3.80
2023-02-15T06:23:42.466Z,3.80
2023-02-15T06:26:09.736Z,3.80
2023-02-15T06:28:38.291Z,3.80
2023-02-15T06:31:06.475Z,3.70
2023-02-15T06:33:36.317Z,3.60
2023-02-15T06:36:04.929Z,3.60
2023-02-15T06:38:32.949Z,3.60
2023-02-15T06:41:00.255Z,3.60
2023-02-15T06:43:29.689Z,3.60
2023-02-15T06:45:59.438Z,3.60
2023-02-15T06:48:26.800Z,3.60
2023-02-15T06:50:56.527Z,3.70
2023-02-15T06:53:23.798Z,3.70
2023-02-15T06:55:51.074Z,3.70
2023-02-15T06:58:18.462Z,3.70
2023-02-15T07:00:45.694Z,3.70
2023-02-15T07:03:15.010Z,3.70
2023-02-15T07:05:42.257Z,3.60
2023-02-15T07:08:11.675Z,3.60
2023-02-15T07:10:38.889Z,3.70
2023-02-15T07:13:08.605Z,3.70
2023-02-15T07:15:35.974Z,3.80
2023-02-15T07:18:03.420Z,3.90
2023-02-15T07:20:30.694Z,4.10
2023-02-15T07:23:00.335Z,4.30
2023-02-15T07:25:30.025Z,4.50
2023-02-15T07:27:58.976Z,4.80
2023-02-15T07:30:26.403Z,5.20
2023-02-15T07:33:18.949Z,5.40
2023-02-15T07:35:50.951Z,5.60
2023-02-15T07:38:18.564Z,5.60
2023-02-15T07:40:45.958Z,5.70
2023-02-15T07:43:13.411Z,5.90
2023-02-15T07:45:41.374Z,6.20
2023-02-15T07:48:11.227Z,6.40
2023-02-15T07:50:43.260Z,6.60
2023-02-15T07:53:13.045Z,6.70
2023-02-15T07:55:40.271Z,6.90
2023-02-15T07:58:07.562Z,7.00
2023-02-15T08:00:54.811Z,7.20
2023-02-15T08:03:27.778Z,7.30
2023-02-15T08:06:03.921Z,7.20
2023-02-15T08:08:33.966Z,6.70
2023-02-15T08:11:34.344Z,6.50
2023-02-15T08:14:15.117Z,6.30
2023-02-15T08:16:49.031Z,6.40
2023-02-15T08:19:20.169Z,6.70
2023-02-15T08:21:51.096Z,6.80
2023-02-15T08:24:20.953Z,6.90
2023-02-15T08:26:49.112Z,6.80
2023-02-15T08:29:19.016Z,6.80
2023-02-15T08:31:51.546Z,6.60
2023-02-15T08:34:23.226Z,6.80
2023-02-15T08:36:53.132Z,7.00
2023-02-15T08:39:22.923Z,7.20
2023-02-15T08:41:50.264Z,7.50
2023-02-15T08:44:19.362Z,7.60
2023-02-15T08:46:50.272Z,7.70
2023-02-15T08:49:22.383Z,7.90
2023-02-15T08:51:50.649Z,8.30
2023-02-15T08:54:20.579Z,8.60
2023-02-15T08:56:48.343Z,9.10
2023-02-15T08:59:22.558Z,10.10
2023-02-15T09:01:56.326Z,11.70
2023-02-15T09:04:30.634Z,12.90
2023-02-15T09:06:57.897Z,13.90
2023-02-15T09:09:25.337Z,15.10
2023-02-15T09:11:58.806Z,16.00
2023-02-15T09:14:31.144Z,16.40
2023-02-15T09:17:03.275Z,17.30
2023-02-15T09:19:30.521Z,17.90
2023-02-15T09:21:59.127Z,18.80
2023-02-15T09:24:32.542Z,19.50
2023-02-15T09:26:59.693Z,19.60
2023-02-15T09:29:26.879Z,19.10
2023-02-15T09:31:54.717Z,19.80
2023-02-15T09:34:24.521Z,20.00
2023-02-15T09:36:52.165Z,20.60
2023-02-15T09:39:27.678Z,20.60
2023-02-15T09:42:26.040Z,20.80
2023-02-15T09:45:06.360Z,21.60
2023-02-15T09:47:42.458Z,22.40
2023-02-15T09:50:15.352Z,22.60
2023-02-15T09:53:00.566Z,22.40
2023-02-15T09:56:00.273Z,22.40
2023-02-15T09:58:55.368Z,21.80
2023-02-15T10:01:41.165Z,21.00
2023-02-15T10:04:37.493Z,20.70
2023-02-15T10:07:23.866Z,20.40
2023-02-15T10:09:57.529Z,20.50
2023-02-15T10:12:42.127Z,20.30
2023-02-15T10:15:29.414Z,19.80
2023-02-15T10:18:10.772Z,19.80
2023-02-15T10:20:58.923Z,19.70
2023-02-15T10:24:04.471Z,19.80
2023-02-15T10:26:44.104Z,20.00
2023-02-15T10:29:38.962Z,20.80
2023-02-15T10:32:17.086Z,21.50
2023-02-15T10:34:59.476Z,22.30
2023-02-15T10:37:26.805Z,22.60
2023-02-15T10:40:28.046Z,22.80
2023-02-15T10:42:55.524Z,23.20
2023-02-15T10:46:04.294Z,23.40
2023-02-15T10:49:03.065Z,23.40
2023-02-15T10:52:07.831Z,24.10
2023-02-15T10:54:52.938Z,24.40
2023-02-15T10:57:44.100Z,24.50
2023-02-15T11:00:17.187Z,24.70
2023-02-15T11:03:20.324Z,24.90
2023-02-15T11:06:13.229Z,24.20
2023-02-15T11:08:49.659Z,24.20
2023-02-15T11:11:27.619Z,24.30
2023-02-15T11:14:04.673Z,24.40
2023-02-15T11:16:40.634Z,25.10
2023-02-15T11:19:22.888Z,25.90
2023-02-15T11:21:53.981Z,26.40
2023-02-15T11:24:30.041Z,26.90
2023-02-15T11:27:14.049Z,26.40
2023-02-15T11:30:02.084Z,26.40
2023-02-15T11:32:39.759Z,26.50
2023-02-15T11:35:23.686Z,26.20
2023-02-15T11:38:04.800Z,25.80
2023-02-15T11:40:36.917Z,26.00
2023-02-15T11:43:14.393Z,25.40
2023-02-15T11:45:44.225Z,25.10
2023-02-15T11:48:14.384Z,24.80
2023-02-15T11:50:45.473Z,24.00
2023-02-15T11:53:19.006Z,23.70
2023-02-15T11:55:49.467Z,23.50
2023-02-15T11:58:26.237Z,23.60
2023-02-15T12:01:17.185Z,23.80
2023-02-15T12:03:51.480Z,24.50
2023-02-15T12:06:39.721Z,24.70
2023-02-15T12:09:23.739Z,24.40
2023-02-15T12:11:51.103Z,23.70
2023-02-15T12:14:18.864Z,23.20
2023-02-15T12:16:53.022Z,22.80
2023-02-15T12:19:41.462Z,23.00
2023-02-15T12:22:25.212Z,22.90
2023-02-15T12:24:56.510Z,23.30
2023-02-15T12:27:32.098Z,23.80
2023-02-15T12:30:10.871Z,24.00
2023-02-15T12:32:57.382Z,24.00
2023-02-15T12:35:33.018Z,23.40
2023-02-15T12:38:24.069Z,22.60
2023-02-15T12:41:01.939Z,22.00
2023-02-15T12:43:37.579Z,21.40
2023-02-15T12:46:38.363Z,20.50
2023-02-15T12:49:12.419Z,20.00
2023-02-15T12:51:51.284Z,20.00
2023-02-15T12:54:33.261Z,20.40
2023-02-15T12:57:15.884Z,20.60
2023-02-15T12:59:53.767Z,20.80
2023-02-15T13:02:43.705Z,21.30
2023-02-15T13:05:14.621Z,21.90
2023-02-15T13:07:47.117Z,21.80
2023-02-15T13:10:53.261Z,22.00
2023-02-15T13:13:25.358Z,22.00
2023-02-15T13:15:58.372Z,22.30
2023-02-15T13:18:35.898Z,22.10
2023-02-15T13:21:11.770Z,22.20
2023-02-15T13:23:45.462Z,22.90
2023-02-15T13:26:19.580Z,23.10
2023-02-15T13:28:50.773Z,23.40
2023-02-15T13:31:26.666Z,23.30
2023-02-15T13:33:59.549Z,22.90
2023-02-15T13:37:02.535Z,22.80
2023-02-15T13:39:41.104Z,22.60
2023-02-15T13:42:22.858Z,22.40
2023-02-15T13:44:59.024Z,22.80
2023-02-15T13:47:41.255Z,22.90
2023-02-15T13:50:50.541Z,22.50
2023-02-15T13:53:42.175Z,21.90
2023-02-15T13:56:22.817Z,21.40
2023-02-15T13:59:21.082Z,21.40
2023-02-15T14:02:16.562Z,21.70
2023-02-15T14:05:42.501Z,22.10
2023-02-15T14:08:18.342Z,21.60
2023-02-15T14:10:51.530Z,21.20
2023-02-15T14:13:50.143Z,20.90
2023-02-15T14:17:00.819Z,20.80
2023-02-15T14:19:40.930Z,20.80
2023-02-15T14:22:32.702Z,21.10
2023-02-15T14:25:18.798Z,21.40
2023-02-15T14:27:53.295Z,21.30
2023-02-15T14:30:23.876Z,21.20
2023-02-15T14:33:01.899Z,21.20
2023-02-15T14:35:31.344Z,21.20
2023-02-15T14:38:22.739Z,20.90
2023-02-15T14:41:05.221Z,20.80
2023-02-15T14:43:35.914Z,20.80
2023-02-15T14:46:27.790Z,20.60
2023-02-15T14:49:06.600Z,20.40
2023-02-15T14:51:51.758Z,20.30
2023-02-15T14:54:22.102Z,20.00
2023-02-15T14:57:01.695Z,19.90
2023-02-15T14:59:43.676Z,20.00
2023-02-15T15:02:19.807Z,20.30
2023-02-15T15:05:00.669Z,20.30
2023-02-15T15:07:40.408Z,20.30
2023-02-15T15:10:35.359Z,20.20
2023-02-15T15:13:31.533Z,19.70
2023-02-15T15:16:24.607Z,19.60
2023-02-15T15:18:54.733Z,19.70
2023-02-15T15:21:50.060Z,19.70
2023-02-15T15:25:00.341Z,19.60
2023-02-15T15:27:55.239Z,19.60
2023-02-15T15:30:22.690Z,19.40
2023-02-15T15:32:55.823Z,19.40
2023-02-15T15:35:36.014Z,19.20
2023-02-15T15:38:38.252Z,18.90
2023-02-15T15:41:33.359Z,19.00
2023-02-15T15:44:38.114Z,19.20
2023-02-15T15:47:51.261Z,19.40
2023-02-15T15:50:21.379Z,19.40
2023-02-15T15:52:56.179Z,19.30
2023-02-15T15:55:26.622Z,18.70
2023-02-15T15:57:57.964Z,18.60
2023-02-15T16:00:34.103Z,18.20
2023-02-15T16:03:01.775Z,18.00
2023-02-15T16:05:40.052Z,17.80
2023-02-15T16:08:07.819Z,17.50
2023-02-15T16:10:38.650Z,17.30
2023-02-15T16:13:08.525Z,17.30
2023-02-15T16:15:50.826Z,17.10
2023-02-15T16:18:19.870Z,17.00
2023-02-15T16:20:57.982Z,16.70
2023-02-15T16:23:51.065Z,16.30
2023-02-15T16:26:42.967Z,16.10
2023-02-15T16:29:29.087Z,15.70
2023-02-15T16:32:16.539Z,15.30
2023-02-15T16:34:59.079Z,15.20
2023-02-15T16:37:30.857Z,15.00
2023-02-15T16:39:58.231Z,14.80
2023-02-15T16:42:28.257Z,14.70
2023-02-15T16:45:09.422Z,14.60
2023-02-15T16:47:42.200Z,14.60
2023-02-15T16:50:23.238Z,14.40
2023-02-15T16:52:51.843Z,14.40
2023-02-15T16:55:24.036Z,14.20
2023-02-15T16:58:01.484Z,14.20
2023-02-15T17:00:36.570Z,14.20
2023-02-15T17:03:22.377Z,14.20
2023-02-15T17:06:01.228Z,14.20
2023-02-15T17:08:43.407Z,14.10
2023-02-15T17:11:36.681Z,13.90
2023-02-15T17:14:07.743Z,13.70
2023-02-15T17:16:42.204Z,13.40
2023-02-15T17:19:16.295Z,13.20
2023-02-15T17:21:52.400Z,13.00
2023-02-15T17:24:34.730Z,13.00
2023-02-15T17:27:15.652Z,13.00
2023-02-15T17:29:48.338Z,13.10
2023-02-15T17:32:28.353Z,12.90
2023-02-15T17:34:59.770Z,12.80
2023-02-15T17:37:39.785Z,12.60
2023-02-15T17:40:32.501Z,12.20
2023-02-15T17:43:00.470Z,11.90
2023-02-15T17:45:35.526Z,11.90
2023-02-15T17:48:16.616Z,11.90
2023-02-15T17:50:43.976Z,11.80
2023-02-15T17:53:12.061Z,12.00
2023-02-15T17:55:39.427Z,12.00
2023-02-15T17:58:15.075Z,11.90
2023-02-15T18:01:04.352Z,11.90
2023-02-15T18:04:01.497Z,11.90
2023-02-15T18:06:50.018Z,11.80
2023-02-15T18:09:38.100Z,11.80
2023-02-15T18:12:24.996Z,11.70
2023-02-15T18:14:55.650Z,11.80
2023-02-15T18:17:28.110Z,11.80
2023-02-15T18:19:58.421Z,11.90
2023-02-15T18:22:28.316Z,12.00
2023-02-15T18:24:55.592Z,12.00
2023-02-15T18:27:22.857Z,12.10
2023-02-15T18:29:50.152Z,12.30
2023-02-15T18:32:28.889Z,12.30
2023-02-15T18:34:58.530Z,12.30
2023-02-15T18:37:29.611Z,12.30
2023-02-15T18:39:56.902Z,12.20
2023-02-15T18:42:36.574Z,12.20
2023-02-15T18:45:35.158Z,11.90
2023-02-15T18:48:02.726Z,11.70
2023-02-15T18:50:34.987Z,11.60
2023-02-15T18:53:06.630Z,11.60
2023-02-15T18:55:36.705Z,11.60
2023-02-15T18:58:04.111Z,11.50
2023-02-15T19:00:35.083Z,11.50
2023-02-15T19:03:03.402Z,11.50
2023-02-15T19:05:32.832Z,11.50
2023-02-15T19:08:04.170Z,11.60
2023-02-15T19:10:35.730Z,11.70
2023-02-15T19:13:03.247Z,11.60
2023-02-15T19:15:31.258Z,11.30
2023-02-15T19:18:01.146Z,11.20
2023-02-15T19:20:48.460Z,11.00
2023-02-15T19:23:23.851Z,10.90
2023-02-15T19:25:53.256Z,10.90
2023-02-15T19:28:38.408Z,10.80
2023-02-15T19:31:05.810Z,10.70
2023-02-15T19:33:34.635Z,10.70
2023-02-15T19:36:05.874Z,10.70
2023-02-15T19:38:37.154Z,10.60
2023-02-15T19:41:16.306Z,10.60
2023-02-15T19:43:53.280Z,10.50
2023-02-15T19:46:21.797Z,10.40
2023-02-15T19:48:51.048Z,10.30
2023-02-15T19:51:20.293Z,10.30
2023-02-15T19:53:49.278Z,10.30
2023-02-15T19:56:23.505Z,10.20
2023-02-15T19:58:57.698Z,10.20
2023-02-15T20:01:28.588Z,10.20
2023-02-15T20:03:56.005Z,10.20
2023-02-15T20:06:25.705Z,10.10
2023-02-15T20:08:55.853Z,10.10
2023-02-15T20:11:24.357Z,10.10
2023-02-15T20:13:52.062Z,10.00
2023-02-15T20:16:21.805Z,10.00
2023-02-15T20:18:49.105Z,10.00
2023-02-15T20:21:16.675Z,10.00
2023-02-15T20:23:46.892Z,9.90
2023-02-15T20:26:18.267Z,9.90
2023-02-15T20:28:46.357Z,9.90
2023-02-15T20:31:21.763Z,9.80
2023-02-15T20:33:49.703Z,9.80
2023-02-15T20:36:19.914Z,9.80
2023-02-15T20:38:49.886Z,9.80
2023-02-15T20:41:40.070Z,9.90
2023-02-15T20:44:19.359Z,9.80
2023-02-15T20:46:47.651Z,9.60
2023-02-15T20:49:17.215Z,9.60
2023-02-15T20:51:48.071Z,9.50
2023-02-15T20:54:23.253Z,9.40
2023-02-15T20:56:50.894Z,9.30
2023-02-15T20:59:32.406Z,9.30
2023-02-15T21:02:22.985Z,9.20
2023-02-15T21:04:53.053Z,9.20
2023-02-15T21:07:21.733Z,9.20
2023-02-15T21:09:49.135Z,9.20
2023-02-15T21:12:19.427Z,9.20
2023-02-15T21:14:49.490Z,9.20
2023-02-15T21:17:17.340Z,9.10
2023-02-15T21:19:44.633Z,9.20
2023-02-15T21:22:18.160Z,9.10
2023-02-15T21:24:49.155Z,9.10
2023-02-15T21:27:17.158Z,9.10
2023-02-15T21:29:46.641Z,9.20
2023-02-15T21:32:14.066Z,9.00
2023-02-15T21:34:44.395Z,8.90
2023-02-15T21:37:44.767Z,9.00
2023-02-15T21:40:32.320Z,8.80
2023-02-15T21:43:18.948Z,8.90
2023-02-15T21:46:04.948Z,8.80
2023-02-15T21:48:32.236Z,8.70
2023-02-15T21:51:18.164Z,8.70
2023-02-15T21:53:49.133Z,8.70
2023-02-15T21:56:19.622Z,8.60
2023-02-15T21:58:49.478Z,8.60
2023-02-15T22:01:27.915Z,8.50
2023-02-15T22:03:57.657Z,8.40
2023-02-15T22:06:25.273Z,8.30
2023-02-15T22:08:52.498Z,8.30
2023-02-15T22:11:23.644Z,8.20
2023-02-15T22:13:51.102Z,8.20
2023-02-15T22:16:23.391Z,8.30
2023-02-15T22:18:53.779Z,8.20
2023-02-15T22:21:23.930Z,8.20
2023-02-15T22:23:51.154Z,8.10
2023-02-15T22:26:22.976Z,8.20
2023-02-15T22:28:50.854Z,8.10
2023-02-15T22:31:21.309Z,8.10
2023-02-15T22:33:51.299Z,8.00
2023-02-15T22:36:27.732Z,8.10
2023-02-15T22:39:00.340Z,8.00
2023-02-15T22:41:30.431Z,8.00
2023-02-15T22:44:00.427Z,7.90
2023-02-15T22:46:27.849Z,8.00
2023-02-15T22:48:59.565Z,8.00
2023-02-15T22:51:26.841Z,8.00
2023-02-15T22:53:56.622Z,7.90
2023-02-15T22:56:34.230Z,7.90
2023-02-15T22:59:05.465Z,7.90
2023-02-15T23:01:35.377Z,7.90
2023-02-15T23:04:04.063Z,7.90
2023-02-15T23:06:34.261Z,7.90
2023-02-15T23:09:02.060Z,7.80
2023-02-15T23:11:29.389Z,7.70
2023-02-15T23:13:59.014Z,7.80
2023-02-15T23:16:31.188Z,7.80
2023-02-15T23:19:01.228Z,7.90
2023-02-15T23:21:32.356Z,7.90
2023-02-15T23:24:19.258Z,7.80
2023-02-15T23:26:49.845Z,7.80
2023-02-15T23:29:19.781Z,7.80
2023-02-15T23:31:52.857Z,7.80
2023-02-15T23:34:31.761Z,7.80
2023-02-15T23:36:58.998Z,7.80
2023-02-15T23:39:47.108Z,7.80
2023-02-15T23:42:17.946Z,7.80
2023-02-15T23:44:49.496Z,7.70
2023-02-15T23:47:41.564Z,7.70
2023-02-15T23:50:22.576Z,7.60
2023-02-15T23:52:50.749Z,7.60
2023-02-15T23:55:18.926Z,7.50
2023-02-15T23:57:47.034Z,7.50
